sensor_id;sensor_type;location;lat;lon;timestamp;P1;durP1;ratioP1;P2;durP2;ratioP2
7013;SDS011;3547;50.774;12.918;2022-12-18T00:01:36;14.17;;;8.20;;
7013;SDS011;3547;50.774;12.918;2022-12-18T00:04:06;15.03;;;8.57;;
7013;SDS011;3547;50.774;12.918;2022-12-18T00:06:38;12.23;;;6.63;;
7013;SDS011;3547;50.774;12.918;2022-12-18T00:09:04;10.27;;;6.33;;
7013;SDS011;3547;50.774;12.918;2022-12-18T00:11:30;14.30;;;8.63;;
7013;SDS011;3547;50.774;12.918;2022-12-18T00:13:57;16.37;;;8.90;;
7013;SDS011;3547;50.774;12.918;2022-12-18T00:19:47;14.00;;;8.00;;
7013;SDS011;3547;50.774;12.918;2022-12-18T00:22:13;15.63;;;7.87;;
7013;SDS011;3547;50.774;12.918;2022-12-18T00:24:39;13.57;;;7.70;;
7013;SDS011;3547;50.774;12.918;2022-12-18T00:30:42;10.73;;;6.47;;
7013;SDS011;3547;50.774;12.918;2022-12-18T00:33:08;12.90;;;7.20;;
7013;SDS011;3547;50.774;12.918;2022-12-18T00:35:34;8.23;;;5.47;;
7013;SDS011;3547;50.774;12.918;2022-12-18T00:38:00;9.87;;;6.67;;
7013;SDS011;3547;50.774;12.918;2022-12-18T00:40:26;8.20;;;4.97;;
7013;SDS011;3547;50.774;12.918;2022-12-18T00:42:52;5.93;;;4.30;;
7013;SDS011;3547;50.774;12.918;2022-12-18T00:45:28;13.70;;;8.93;;
7013;SDS011;3547;50.774;12.918;2022-12-18T00:47:55;12.57;;;8.03;;
7013;SDS011;3547;50.774;12.918;2022-12-18T00:50:22;18.00;;;10.40;;
7013;SDS011;3547;50.774;12.918;2022-12-18T00:56:12;13.20;;;8.40;;
7013;SDS011;3547;50.774;12.918;2022-12-18T00:58:38;8.30;;;5.10;;
7013;SDS011;3547;50.774;12.918;2022-12-18T01:01:05;9.57;;;5.30;;
7013;SDS011;3547;50.774;12.918;2022-12-18T01:03:31;18.17;;;10.03;;
7013;SDS011;3547;50.774;12.918;2022-12-18T01:12:42;7.10;;;4.40;;
7013;SDS011;3547;50.774;12.918;2022-12-18T01:15:09;10.00;;;5.03;;
7013;SDS011;3547;50.774;12.918;2022-12-18T01:17:37;13.40;;;6.50;;
7013;SDS011;3547;50.774;12.918;2022-12-18T01:20:03;12.17;;;6.50;;
7013;SDS011;3547;50.774;12.918;2022-12-18T01:22:30;8.93;;;5.30;;
7013;SDS011;3547;50.774;12.918;2022-12-18T01:24:59;6.50;;;4.17;;
7013;SDS011;3547;50.774;12.918;2022-12-18T01:30:57;6.03;;;3.63;;
7013;SDS011;3547;50.774;12.918;2022-12-18T01:33:34;14.17;;;7.50;;
7013;SDS011;3547;50.774;12.918;2022-12-18T01:36:00;14.40;;;7.67;;
7013;SDS011;3547;50.774;12.918;2022-12-18T01:38:26;10.20;;;6.10;;
7013;SDS011;3547;50.774;12.918;2022-12-18T01:40:58;12.83;;;6.63;;
7013;SDS011;3547;50.774;12.918;2022-12-18T01:43:44;9.17;;;5.00;;
7013;SDS011;3547;50.774;12.918;2022-12-18T01:46:18;6.90;;;4.60;;
7013;SDS011;3547;50.774;12.918;2022-12-18T01:48:47;7.53;;;4.67;;
7013;SDS011;3547;50.774;12.918;2022-12-18T01:51:15;7.43;;;4.17;;
7013;SDS011;3547;50.774;12.918;2022-12-18T01:53:42;6.77;;;3.73;;
7013;SDS011;3547;50.774;12.918;2022-12-18T01:56:12;5.80;;;3.90;;
7013;SDS011;3547;50.774;12.918;2022-12-18T02:01:30;21.23;;;11.13;;
7013;SDS011;3547;50.774;12.918;2022-12-18T02:04:14;16.23;;;7.93;;
7013;SDS011;3547;50.774;12.918;2022-12-18T02:06:47;11.70;;;6.57;;
7013;SDS011;3547;50.774;12.918;2022-12-18T02:09:24;6.47;;;2.97;;
7013;SDS011;3547;50.774;12.918;2022-12-18T02:17:18;14.57;;;8.17;;
7013;SDS011;3547;50.774;12.918;2022-12-18T02:19:55;18.83;;;9.83;;
7013;SDS011;3547;50.774;12.918;2022-12-18T02:28:28;5.63;;;3.97;;
7013;SDS011;3547;50.774;12.918;2022-12-18T02:31:01;6.70;;;3.73;;
7013;SDS011;3547;50.774;12.918;2022-12-18T02:33:30;7.33;;;4.27;;
7013;SDS011;3547;50.774;12.918;2022-12-18T02:35:58;12.03;;;5.63;;
7013;SDS011;3547;50.774;12.918;2022-12-18T02:38:25;12.20;;;6.90;;
7013;SDS011;3547;50.774;12.918;2022-12-18T02:40:54;17.00;;;9.43;;
7013;SDS011;3547;50.774;12.918;2022-12-18T02:43:20;16.27;;;9.67;;
7013;SDS011;3547;50.774;12.918;2022-12-18T02:45:57;10.90;;;6.90;;
7013;SDS011;3547;50.774;12.918;2022-12-18T02:48:26;15.70;;;10.27;;
7013;SDS011;3547;50.774;12.918;2022-12-18T02:51:00;16.97;;;8.50;;
7013;SDS011;3547;50.774;12.918;2022-12-18T02:53:53;13.83;;;6.93;;
7013;SDS011;3547;50.774;12.918;2022-12-18T02:56:45;14.13;;;8.33;;
7013;SDS011;3547;50.774;12.918;2022-12-18T02:59:25;12.80;;;7.23;;
7013;SDS011;3547;50.774;12.918;2022-12-18T03:07:37;8.53;;;5.40;;
7013;SDS011;3547;50.774;12.918;2022-12-18T03:10:11;10.17;;;5.27;;
7013;SDS011;3547;50.774;12.918;2022-12-18T03:12:44;13.07;;;6.60;;
7013;SDS011;3547;50.774;12.918;2022-12-18T03:15:22;8.53;;;4.23;;
7013;SDS011;3547;50.774;12.918;2022-12-18T03:17:55;7.30;;;4.10;;
7013;SDS011;3547;50.774;12.918;2022-12-18T03:20:24;7.93;;;5.20;;
7013;SDS011;3547;50.774;12.918;2022-12-18T03:22:53;8.90;;;5.13;;
7013;SDS011;3547;50.774;12.918;2022-12-18T03:25:27;10.33;;;6.60;;
7013;SDS011;3547;50.774;12.918;2022-12-18T03:27:56;10.60;;;6.67;;
7013;SDS011;3547;50.774;12.918;2022-12-18T03:30:26;14.67;;;7.73;;
7013;SDS011;3547;50.774;12.918;2022-12-18T03:33:00;13.37;;;6.83;;
7013;SDS011;3547;50.774;12.918;2022-12-18T03:35:41;9.30;;;5.70;;
7013;SDS011;3547;50.774;12.918;2022-12-18T03:52:03;9.17;;;4.60;;
7013;SDS011;3547;50.774;12.918;2022-12-18T03:54:39;7.13;;;3.77;;
7013;SDS011;3547;50.774;12.918;2022-12-18T04:00:29;9.60;;;5.00;;
7013;SDS011;3547;50.774;12.918;2022-12-18T04:02:57;15.80;;;8.20;;
7013;SDS011;3547;50.774;12.918;2022-12-18T04:05:26;9.30;;;5.30;;
7013;SDS011;3547;50.774;12.918;2022-12-18T04:07:54;10.27;;;5.93;;
7013;SDS011;3547;50.774;12.918;2022-12-18T04:10:21;17.60;;;7.83;;
7013;SDS011;3547;50.774;12.918;2022-12-18T04:12:47;14.33;;;7.70;;
7013;SDS011;3547;50.774;12.918;2022-12-18T04:15:14;8.83;;;4.73;;
7013;SDS011;3547;50.774;12.918;2022-12-18T04:17:43;9.27;;;3.97;;
7013;SDS011;3547;50.774;12.918;2022-12-18T04:20:14;8.03;;;5.47;;
7013;SDS011;3547;50.774;12.918;2022-12-18T04:22:40;5.83;;;3.57;;
7013;SDS011;3547;50.774;12.918;2022-12-18T04:25:06;9.73;;;5.67;;
7013;SDS011;3547;50.774;12.918;2022-12-18T04:27:33;9.47;;;6.47;;
7013;SDS011;3547;50.774;12.918;2022-12-18T04:29:59;12.67;;;6.37;;
7013;SDS011;3547;50.774;12.918;2022-12-18T04:32:25;10.37;;;6.03;;
7013;SDS011;3547;50.774;12.918;2022-12-18T04:34:51;8.23;;;4.90;;
7013;SDS011;3547;50.774;12.918;2022-12-18T04:37:18;5.50;;;4.60;;
7013;SDS011;3547;50.774;12.918;2022-12-18T04:43:06;8.00;;;4.43;;
7013;SDS011;3547;50.774;12.918;2022-12-18T04:45:32;5.70;;;3.47;;
7013;SDS011;3547;50.774;12.918;2022-12-18T04:47:59;6.40;;;3.37;;
7013;SDS011;3547;50.774;12.918;2022-12-18T04:50:25;5.97;;;3.57;;
7013;SDS011;3547;50.774;12.918;2022-12-18T04:52:52;4.57;;;3.33;;
7013;SDS011;3547;50.774;12.918;2022-12-18T04:55:18;3.27;;;2.13;;
7013;SDS011;3547;50.774;12.918;2022-12-18T04:57:44;5.20;;;3.40;;
7013;SDS011;3547;50.774;12.918;2022-12-18T05:00:11;6.17;;;3.17;;
7013;SDS011;3547;50.774;12.918;2022-12-18T05:02:38;7.43;;;4.73;;
7013;SDS011;3547;50.774;12.918;2022-12-18T05:05:04;3.23;;;2.43;;
7013;SDS011;3547;50.774;12.918;2022-12-18T05:07:31;5.00;;;2.90;;
7013;SDS011;3547;50.774;12.918;2022-12-18T05:09:57;2.37;;;1.80;;
7013;SDS011;3547;50.774;12.918;2022-12-18T05:12:23;9.83;;;4.67;;
7013;SDS011;3547;50.774;12.918;2022-12-18T05:14:49;8.57;;;5.17;;
7013;SDS011;3547;50.774;12.918;2022-12-18T05:17:15;3.47;;;2.40;;
7013;SDS011;3547;50.774;12.918;2022-12-18T05:19:41;3.80;;;2.60;;
7013;SDS011;3547;50.774;12.918;2022-12-18T05:22:08;6.03;;;3.80;;
7013;SDS011;3547;50.774;12.918;2022-12-18T05:24:34;5.60;;;3.17;;
7013;SDS011;3547;50.774;12.918;2022-12-18T05:27:01;4.37;;;2.90;;
7013;SDS011;3547;50.774;12.918;2022-12-18T05:29:27;4.10;;;2.30;;
7013;SDS011;3547;50.774;12.918;2022-12-18T05:31:53;4.50;;;2.97;;
7013;SDS011;3547;50.774;12.918;2022-12-18T05:34:19;4.67;;;2.63;;
7013;SDS011;3547;50.774;12.918;2022-12-18T05:36:45;3.40;;;1.80;;
7013;SDS011;3547;50.774;12.918;2022-12-18T05:39:11;7.00;;;4.17;;
7013;SDS011;3547;50.774;12.918;2022-12-18T05:41:37;3.30;;;1.80;;
7013;SDS011;3547;50.774;12.918;2022-12-18T05:44:04;2.23;;;1.80;;
7013;SDS011;3547;50.774;12.918;2022-12-18T05:46:30;10.60;;;4.27;;
7013;SDS011;3547;50.774;12.918;2022-12-18T05:48:58;3.93;;;2.63;;
7013;SDS011;3547;50.774;12.918;2022-12-18T05:54:58;3.67;;;1.70;;
7013;SDS011;3547;50.774;12.918;2022-12-18T05:57:24;1.67;;;1.40;;
7013;SDS011;3547;50.774;12.918;2022-12-18T05:59:50;1.70;;;1.43;;
7013;SDS011;3547;50.774;12.918;2022-12-18T06:02:16;12.17;;;6.43;;
7013;SDS011;3547;50.774;12.918;2022-12-18T06:04:42;2.23;;;1.70;;
7013;SDS011;3547;50.774;12.918;2022-12-18T06:07:09;3.30;;;1.37;;
7013;SDS011;3547;50.774;12.918;2022-12-18T06:09:35;11.83;;;5.43;;
7013;SDS011;3547;50.774;12.918;2022-12-18T06:12:01;4.80;;;3.17;;
7013;SDS011;3547;50.774;12.918;2022-12-18T06:14:27;8.47;;;4.83;;
7013;SDS011;3547;50.774;12.918;2022-12-18T06:16:53;9.73;;;6.00;;
7013;SDS011;3547;50.774;12.918;2022-12-18T06:19:19;9.47;;;5.47;;
7013;SDS011;3547;50.774;12.918;2022-12-18T06:21:46;7.63;;;4.20;;
7013;SDS011;3547;50.774;12.918;2022-12-18T06:24:12;8.67;;;5.00;;
7013;SDS011;3547;50.774;12.918;2022-12-18T06:26:38;8.23;;;4.40;;
7013;SDS011;3547;50.774;12.918;2022-12-18T06:29:05;7.93;;;4.90;;
7013;SDS011;3547;50.774;12.918;2022-12-18T06:31:31;5.93;;;3.20;;
7013;SDS011;3547;50.774;12.918;2022-12-18T06:33:57;6.97;;;3.37;;
7013;SDS011;3547;50.774;12.918;2022-12-18T06:36:23;3.63;;;2.20;;
7013;SDS011;3547;50.774;12.918;2022-12-18T06:38:52;4.40;;;3.00;;
7013;SDS011;3547;50.774;12.918;2022-12-18T06:41:22;3.50;;;2.40;;
7013;SDS011;3547;50.774;12.918;2022-12-18T06:43:48;3.73;;;2.07;;
7013;SDS011;3547;50.774;12.918;2022-12-18T06:46:15;4.23;;;2.93;;
7013;SDS011;3547;50.774;12.918;2022-12-18T06:48:41;4.57;;;2.73;;
7013;SDS011;3547;50.774;12.918;2022-12-18T06:51:07;3.67;;;1.67;;
7013;SDS011;3547;50.774;12.918;2022-12-18T06:53:34;3.07;;;1.70;;
7013;SDS011;3547;50.774;12.918;2022-12-18T06:56:04;5.03;;;2.93;;
7013;SDS011;3547;50.774;12.918;2022-12-18T06:58:32;3.50;;;2.40;;
7013;SDS011;3547;50.774;12.918;2022-12-18T07:01:01;3.13;;;2.07;;
7013;SDS011;3547;50.774;12.918;2022-12-18T07:03:28;6.20;;;3.10;;
7013;SDS011;3547;50.774;12.918;2022-12-18T07:06:03;3.27;;;2.40;;
7013;SDS011;3547;50.774;12.918;2022-12-18T07:08:30;4.40;;;2.83;;
7013;SDS011;3547;50.774;12.918;2022-12-18T07:10:57;3.67;;;2.33;;
7013;SDS011;3547;50.774;12.918;2022-12-18T07:13:26;5.77;;;3.33;;
7013;SDS011;3547;50.774;12.918;2022-12-18T07:15:52;6.27;;;2.80;;
7013;SDS011;3547;50.774;12.918;2022-12-18T07:18:19;3.37;;;2.57;;
7013;SDS011;3547;50.774;12.918;2022-12-18T07:20:45;5.23;;;3.57;;
7013;SDS011;3547;50.774;12.918;2022-12-18T07:23:11;3.13;;;2.47;;
7013;SDS011;3547;50.774;12.918;2022-12-18T07:25:43;3.47;;;2.37;;
7013;SDS011;3547;50.774;12.918;2022-12-18T07:28:09;4.10;;;1.97;;
7013;SDS011;3547;50.774;12.918;2022-12-18T07:30:37;5.47;;;2.90;;
7013;SDS011;3547;50.774;12.918;2022-12-18T07:33:03;4.30;;;2.70;;
7013;SDS011;3547;50.774;12.918;2022-12-18T07:35:29;6.60;;;5.00;;
7013;SDS011;3547;50.774;12.918;2022-12-18T07:41:18;2.90;;;2.00;;
7013;SDS011;3547;50.774;12.918;2022-12-18T07:43:45;3.20;;;1.83;;
7013;SDS011;3547;50.774;12.918;2022-12-18T07:46:12;5.30;;;3.60;;
7013;SDS011;3547;50.774;12.918;2022-12-18T07:48:40;6.03;;;4.00;;
7013;SDS011;3547;50.774;12.918;2022-12-18T07:51:06;6.40;;;4.00;;
7013;SDS011;3547;50.774;12.918;2022-12-18T07:53:33;7.37;;;4.73;;
7013;SDS011;3547;50.774;12.918;2022-12-18T07:56:01;8.33;;;5.20;;
7013;SDS011;3547;50.774;12.918;2022-12-18T07:58:30;3.37;;;2.40;;
7013;SDS011;3547;50.774;12.918;2022-12-18T08:01:03;5.87;;;3.00;;
7013;SDS011;3547;50.774;12.918;2022-12-18T08:03:30;5.37;;;2.67;;
7013;SDS011;3547;50.774;12.918;2022-12-18T08:06:06;2.70;;;2.40;;
7013;SDS011;3547;50.774;12.918;2022-12-18T08:08:52;3.50;;;2.53;;
7013;SDS011;3547;50.774;12.918;2022-12-18T08:11:19;4.57;;;2.73;;
7013;SDS011;3547;50.774;12.918;2022-12-18T08:13:46;6.13;;;3.17;;
7013;SDS011;3547;50.774;12.918;2022-12-18T08:16:12;3.47;;;2.40;;
7013;SDS011;3547;50.774;12.918;2022-12-18T08:22:01;4.87;;;2.83;;
7013;SDS011;3547;50.774;12.918;2022-12-18T08:24:27;4.37;;;3.13;;
7013;SDS011;3547;50.774;12.918;2022-12-18T08:26:54;17.87;;;8.37;;
7013;SDS011;3547;50.774;12.918;2022-12-18T08:29:20;5.13;;;4.30;;
7013;SDS011;3547;50.774;12.918;2022-12-18T08:31:46;9.40;;;5.80;;
7013;SDS011;3547;50.774;12.918;2022-12-18T08:34:12;12.50;;;6.07;;
7013;SDS011;3547;50.774;12.918;2022-12-18T08:36:39;11.30;;;7.40;;
7013;SDS011;3547;50.774;12.918;2022-12-18T08:39:05;11.20;;;7.43;;
7013;SDS011;3547;50.774;12.918;2022-12-18T08:41:31;15.90;;;9.60;;
7013;SDS011;3547;50.774;12.918;2022-12-18T08:43:57;9.87;;;5.90;;
7013;SDS011;3547;50.774;12.918;2022-12-18T08:46:55;10.50;;;4.80;;
7013;SDS011;3547;50.774;12.918;2022-12-18T08:49:21;13.17;;;7.40;;
7013;SDS011;3547;50.774;12.918;2022-12-18T08:51:47;5.70;;;3.73;;
7013;SDS011;3547;50.774;12.918;2022-12-18T08:54:13;10.17;;;6.23;;
7013;SDS011;3547;50.774;12.918;2022-12-18T08:56:40;16.30;;;8.67;;
7013;SDS011;3547;50.774;12.918;2022-12-18T08:59:12;21.13;;;11.67;;
7013;SDS011;3547;50.774;12.918;2022-12-18T09:01:38;15.37;;;9.13;;
7013;SDS011;3547;50.774;12.918;2022-12-18T09:04:04;18.23;;;9.63;;
7013;SDS011;3547;50.774;12.918;2022-12-18T09:06:31;8.63;;;5.27;;
7013;SDS011;3547;50.774;12.918;2022-12-18T09:08:57;11.40;;;6.80;;
7013;SDS011;3547;50.774;12.918;2022-12-18T09:11:24;13.27;;;8.73;;
7013;SDS011;3547;50.774;12.918;2022-12-18T09:13:51;16.37;;;8.57;;
7013;SDS011;3547;50.774;12.918;2022-12-18T09:16:18;11.50;;;7.40;;
7013;SDS011;3547;50.774;12.918;2022-12-18T09:18:45;11.50;;;7.77;;
7013;SDS011;3547;50.774;12.918;2022-12-18T09:21:13;13.47;;;8.17;;
7013;SDS011;3547;50.774;12.918;2022-12-18T09:23:41;18.63;;;12.50;;
7013;SDS011;3547;50.774;12.918;2022-12-18T09:26:07;11.07;;;8.40;;
7013;SDS011;3547;50.774;12.918;2022-12-18T09:28:33;21.83;;;12.37;;
7013;SDS011;3547;50.774;12.918;2022-12-18T09:31:04;23.33;;;12.37;;
7013;SDS011;3547;50.774;12.918;2022-12-18T09:33:33;14.27;;;9.70;;
7013;SDS011;3547;50.774;12.918;2022-12-18T09:36:02;23.50;;;12.63;;
7013;SDS011;3547;50.774;12.918;2022-12-18T09:38:32;21.30;;;11.07;;
7013;SDS011;3547;50.774;12.918;2022-12-18T09:41:03;17.97;;;10.73;;
7013;SDS011;3547;50.774;12.918;2022-12-18T09:43:53;9.57;;;6.83;;
7013;SDS011;3547;50.774;12.918;2022-12-18T09:46:31;10.63;;;6.77;;
7013;SDS011;3547;50.774;12.918;2022-12-18T09:49:05;14.70;;;10.07;;
7013;SDS011;3547;50.774;12.918;2022-12-18T09:51:43;8.33;;;5.40;;
7013;SDS011;3547;50.774;12.918;2022-12-18T09:54:22;8.80;;;4.90;;
7013;SDS011;3547;50.774;12.918;2022-12-18T09:56:55;6.70;;;4.47;;
7013;SDS011;3547;50.774;12.918;2022-12-18T09:59:26;8.90;;;5.30;;
7013;SDS011;3547;50.774;12.918;2022-12-18T10:01:57;13.53;;;8.03;;
7013;SDS011;3547;50.774;12.918;2022-12-18T10:04:24;14.70;;;9.47;;
7013;SDS011;3547;50.774;12.918;2022-12-18T10:10:03;16.00;;;9.67;;
7013;SDS011;3547;50.774;12.918;2022-12-18T10:12:50;15.73;;;8.90;;
7013;SDS011;3547;50.774;12.918;2022-12-18T10:15:28;14.17;;;7.73;;
7013;SDS011;3547;50.774;12.918;2022-12-18T10:20:49;27.50;;;15.30;;
7013;SDS011;3547;50.774;12.918;2022-12-18T10:26:10;19.53;;;11.70;;
7013;SDS011;3547;50.774;12.918;2022-12-18T10:28:39;9.93;;;5.97;;
7013;SDS011;3547;50.774;12.918;2022-12-18T10:31:07;7.20;;;5.07;;
7013;SDS011;3547;50.774;12.918;2022-12-18T10:33:41;8.77;;;5.50;;
7013;SDS011;3547;50.774;12.918;2022-12-18T10:36:07;7.80;;;4.87;;
7013;SDS011;3547;50.774;12.918;2022-12-18T10:38:34;6.57;;;4.73;;
7013;SDS011;3547;50.774;12.918;2022-12-18T10:41:05;5.73;;;3.97;;
7013;SDS011;3547;50.774;12.918;2022-12-18T10:43:44;8.97;;;5.07;;
7013;SDS011;3547;50.774;12.918;2022-12-18T10:46:14;9.30;;;5.33;;
7013;SDS011;3547;50.774;12.918;2022-12-18T10:51:19;5.83;;;4.07;;
7013;SDS011;3547;50.774;12.918;2022-12-18T10:53:56;8.63;;;4.67;;
7013;SDS011;3547;50.774;12.918;2022-12-18T10:56:26;7.30;;;4.37;;
7013;SDS011;3547;50.774;12.918;2022-12-18T10:59:00;7.13;;;4.00;;
7013;SDS011;3547;50.774;12.918;2022-12-18T11:01:50;4.60;;;3.40;;
7013;SDS011;3547;50.774;12.918;2022-12-18T11:04:24;5.73;;;4.00;;
7013;SDS011;3547;50.774;12.918;2022-12-18T11:06:59;8.37;;;5.10;;
7013;SDS011;3547;50.774;12.918;2022-12-18T11:09:30;8.47;;;5.10;;
7013;SDS011;3547;50.774;12.918;2022-12-18T11:12:23;11.30;;;5.60;;
7013;SDS011;3547;50.774;12.918;2022-12-18T11:14:49;9.10;;;5.30;;
7013;SDS011;3547;50.774;12.918;2022-12-18T11:17:18;6.67;;;4.27;;
7013;SDS011;3547;50.774;12.918;2022-12-18T11:19:44;6.93;;;4.03;;
7013;SDS011;3547;50.774;12.918;2022-12-18T11:24:57;7.90;;;3.77;;
7013;SDS011;3547;50.774;12.918;2022-12-18T11:27:25;6.33;;;3.90;;
7013;SDS011;3547;50.774;12.918;2022-12-18T11:30:06;8.70;;;4.20;;
7013;SDS011;3547;50.774;12.918;2022-12-18T11:32:56;7.20;;;4.10;;
7013;SDS011;3547;50.774;12.918;2022-12-18T11:35:56;5.60;;;3.50;;
7013;SDS011;3547;50.774;12.918;2022-12-18T11:38:30;7.33;;;4.00;;
7013;SDS011;3547;50.774;12.918;2022-12-18T11:47:15;4.60;;;2.73;;
7013;SDS011;3547;50.774;12.918;2022-12-18T11:50:52;5.70;;;2.73;;
7013;SDS011;3547;50.774;12.918;2022-12-18T11:52:52;3.97;;;2.37;;
7013;SDS011;3547;50.774;12.918;2022-12-18T12:00:25;3.70;;;2.03;;
7013;SDS011;3547;50.774;12.918;2022-12-18T12:05:39;3.20;;;2.40;;
7013;SDS011;3547;50.774;12.918;2022-12-18T12:14:12;5.33;;;2.93;;
7013;SDS011;3547;50.774;12.918;2022-12-18T12:19:40;3.33;;;2.33;;
7013;SDS011;3547;50.774;12.918;2022-12-18T12:41:43;4.27;;;2.63;;
7013;SDS011;3547;50.774;12.918;2022-12-18T12:44:32;3.87;;;2.47;;
7013;SDS011;3547;50.774;12.918;2022-12-18T12:47:24;4.63;;;2.50;;
7013;SDS011;3547;50.774;12.918;2022-12-18T12:49:54;2.93;;;2.30;;
7013;SDS011;3547;50.774;12.918;2022-12-18T12:52:27;3.83;;;2.47;;
7013;SDS011;3547;50.774;12.918;2022-12-18T12:55:06;3.67;;;2.83;;
7013;SDS011;3547;50.774;12.918;2022-12-18T13:06:28;4.27;;;2.63;;
7013;SDS011;3547;50.774;12.918;2022-12-18T13:09:04;4.33;;;2.73;;
7013;SDS011;3547;50.774;12.918;2022-12-18T13:14:26;4.33;;;2.73;;
7013;SDS011;3547;50.774;12.918;2022-12-18T13:22:37;8.47;;;2.70;;
7013;SDS011;3547;50.774;12.918;2022-12-18T13:25:31;7.27;;;3.20;;
7013;SDS011;3547;50.774;12.918;2022-12-18T13:28:05;4.07;;;2.33;;
7013;SDS011;3547;50.774;12.918;2022-12-18T13:31:01;2.87;;;2.50;;
7013;SDS011;3547;50.774;12.918;2022-12-18T13:36:01;3.80;;;2.80;;
7013;SDS011;3547;50.774;12.918;2022-12-18T13:38:36;3.63;;;2.17;;
7013;SDS011;3547;50.774;12.918;2022-12-18T13:43:55;3.70;;;2.60;;
7013;SDS011;3547;50.774;12.918;2022-12-18T13:46:45;5.57;;;2.40;;
7013;SDS011;3547;50.774;12.918;2022-12-18T13:51:39;4.37;;;2.67;;
7013;SDS011;3547;50.774;12.918;2022-12-18T13:54:19;4.10;;;2.70;;
7013;SDS011;3547;50.774;12.918;2022-12-18T13:57:00;5.20;;;2.80;;
7013;SDS011;3547;50.774;12.918;2022-12-18T13:59:34;4.80;;;2.77;;
7013;SDS011;3547;50.774;12.918;2022-12-18T14:02:19;5.43;;;2.77;;
7013;SDS011;3547;50.774;12.918;2022-12-18T14:04:49;4.30;;;2.60;;
7013;SDS011;3547;50.774;12.918;2022-12-18T14:07:17;5.03;;;2.63;;
7013;SDS011;3547;50.774;12.918;2022-12-18T14:09:58;3.87;;;2.40;;
7013;SDS011;3547;50.774;12.918;2022-12-18T14:12:32;5.03;;;3.17;;
7013;SDS011;3547;50.774;12.918;2022-12-18T14:17:55;11.10;;;3.10;;
7013;SDS011;3547;50.774;12.918;2022-12-18T14:20:41;6.53;;;2.73;;
7013;SDS011;3547;50.774;12.918;2022-12-18T14:23:31;3.97;;;2.67;;
7013;SDS011;3547;50.774;12.918;2022-12-18T14:26:01;5.77;;;2.93;;
7013;SDS011;3547;50.774;12.918;2022-12-18T14:28:29;5.63;;;3.10;;
7013;SDS011;3547;50.774;12.918;2022-12-18T14:30:55;5.23;;;2.87;;
7013;SDS011;3547;50.774;12.918;2022-12-18T14:33:23;5.60;;;3.40;;
7013;SDS011;3547;50.774;12.918;2022-12-18T14:35:58;8.70;;;3.60;;
7013;SDS011;3547;50.774;12.918;2022-12-18T14:38:32;2.93;;;2.60;;
7013;SDS011;3547;50.774;12.918;2022-12-18T14:41:11;5.63;;;3.20;;
7013;SDS011;3547;50.774;12.918;2022-12-18T14:43:40;3.23;;;2.80;;
7013;SDS011;3547;50.774;12.918;2022-12-18T14:49:04;6.10;;;3.13;;
7013;SDS011;3547;50.774;12.918;2022-12-18T14:51:51;6.10;;;3.10;;
7013;SDS011;3547;50.774;12.918;2022-12-18T14:54:19;6.43;;;3.57;;
7013;SDS011;3547;50.774;12.918;2022-12-18T14:56:51;4.00;;;3.10;;
7013;SDS011;3547;50.774;12.918;2022-12-18T14:59:28;6.27;;;3.67;;
7013;SDS011;3547;50.774;12.918;2022-12-18T15:02:29;5.80;;;3.40;;
7013;SDS011;3547;50.774;12.918;2022-12-18T15:05:00;5.67;;;3.67;;
7013;SDS011;3547;50.774;12.918;2022-12-18T15:07:42;6.83;;;3.70;;
7013;SDS011;3547;50.774;12.918;2022-12-18T15:12:44;6.63;;;3.97;;
7013;SDS011;3547;50.774;12.918;2022-12-18T15:18:03;4.63;;;3.20;;
7013;SDS011;3547;50.774;12.918;2022-12-18T15:20:38;8.13;;;3.53;;
7013;SDS011;3547;50.774;12.918;2022-12-18T15:23:20;7.67;;;4.40;;
7013;SDS011;3547;50.774;12.918;2022-12-18T15:25:49;8.17;;;4.13;;
7013;SDS011;3547;50.774;12.918;2022-12-18T15:28:30;9.67;;;4.37;;
7013;SDS011;3547;50.774;12.918;2022-12-18T15:33:39;4.23;;;2.77;;
7013;SDS011;3547;50.774;12.918;2022-12-18T15:36:29;5.70;;;3.43;;
7013;SDS011;3547;50.774;12.918;2022-12-18T15:38:59;7.27;;;4.23;;
7013;SDS011;3547;50.774;12.918;2022-12-18T15:41:25;9.57;;;4.83;;
7013;SDS011;3547;50.774;12.918;2022-12-18T15:43:52;9.13;;;4.87;;
7013;SDS011;3547;50.774;12.918;2022-12-18T15:46:20;9.53;;;4.93;;
7013;SDS011;3547;50.774;12.918;2022-12-18T15:48:54;8.33;;;4.37;;
7013;SDS011;3547;50.774;12.918;2022-12-18T15:51:23;8.00;;;4.10;;
7013;SDS011;3547;50.774;12.918;2022-12-18T15:54:09;6.20;;;2.97;;
7013;SDS011;3547;50.774;12.918;2022-12-18T15:56:39;8.00;;;3.17;;
7013;SDS011;3547;50.774;12.918;2022-12-18T15:59:24;6.20;;;3.53;;
7013;SDS011;3547;50.774;12.918;2022-12-18T16:01:50;6.27;;;3.60;;
7013;SDS011;3547;50.774;12.918;2022-12-18T16:04:20;6.73;;;3.63;;
7013;SDS011;3547;50.774;12.918;2022-12-18T16:06:49;5.80;;;3.43;;
7013;SDS011;3547;50.774;12.918;2022-12-18T16:09:17;6.07;;;3.67;;
7013;SDS011;3547;50.774;12.918;2022-12-18T16:11:43;5.27;;;3.50;;
7013;SDS011;3547;50.774;12.918;2022-12-18T16:16:50;7.30;;;3.63;;
7013;SDS011;3547;50.774;12.918;2022-12-18T16:19:18;6.90;;;3.33;;
7013;SDS011;3547;50.774;12.918;2022-12-18T16:21:45;7.17;;;3.50;;
7013;SDS011;3547;50.774;12.918;2022-12-18T16:24:16;5.60;;;3.30;;
7013;SDS011;3547;50.774;12.918;2022-12-18T16:26:44;7.07;;;3.70;;
7013;SDS011;3547;50.774;12.918;2022-12-18T16:29:10;8.57;;;4.73;;
7013;SDS011;3547;50.774;12.918;2022-12-18T16:31:37;6.13;;;3.20;;
7013;SDS011;3547;50.774;12.918;2022-12-18T16:34:37;5.33;;;3.87;;
7013;SDS011;3547;50.774;12.918;2022-12-18T16:37:04;6.03;;;3.13;;
7013;SDS011;3547;50.774;12.918;2022-12-18T16:39:32;5.17;;;2.60;;
7013;SDS011;3547;50.774;12.918;2022-12-18T16:42:00;4.73;;;3.13;;
7013;SDS011;3547;50.774;12.918;2022-12-18T16:44:27;5.43;;;3.10;;
7013;SDS011;3547;50.774;12.918;2022-12-18T16:46:54;7.03;;;4.60;;
7013;SDS011;3547;50.774;12.918;2022-12-18T16:49:20;5.40;;;2.97;;
7013;SDS011;3547;50.774;12.918;2022-12-18T16:51:46;6.30;;;2.97;;
7013;SDS011;3547;50.774;12.918;2022-12-18T16:54:13;6.20;;;3.20;;
7013;SDS011;3547;50.774;12.918;2022-12-18T16:56:40;5.93;;;3.00;;
7013;SDS011;3547;50.774;12.918;2022-12-18T16:59:09;5.33;;;3.10;;
7013;SDS011;3547;50.774;12.918;2022-12-18T17:01:36;5.30;;;3.43;;
7013;SDS011;3547;50.774;12.918;2022-12-18T17:04:03;4.40;;;2.60;;
7013;SDS011;3547;50.774;12.918;2022-12-18T17:06:31;5.73;;;2.47;;
7013;SDS011;3547;50.774;12.918;2022-12-18T17:09:15;4.73;;;2.50;;
7013;SDS011;3547;50.774;12.918;2022-12-18T17:11:45;4.57;;;2.90;;
7013;SDS011;3547;50.774;12.918;2022-12-18T17:14:15;5.63;;;3.03;;
7013;SDS011;3547;50.774;12.918;2022-12-18T17:16:44;4.57;;;2.80;;
7013;SDS011;3547;50.774;12.918;2022-12-18T17:19:11;5.37;;;2.50;;
7013;SDS011;3547;50.774;12.918;2022-12-18T17:21:38;4.50;;;2.80;;
7013;SDS011;3547;50.774;12.918;2022-12-18T17:24:04;6.67;;;3.30;;
7013;SDS011;3547;50.774;12.918;2022-12-18T17:26:30;4.63;;;2.50;;
7013;SDS011;3547;50.774;12.918;2022-12-18T17:28:57;5.27;;;3.47;;
7013;SDS011;3547;50.774;12.918;2022-12-18T17:31:25;4.17;;;2.33;;
7013;SDS011;3547;50.774;12.918;2022-12-18T17:33:53;7.97;;;3.23;;
7013;SDS011;3547;50.774;12.918;2022-12-18T17:36:19;5.13;;;3.00;;
7013;SDS011;3547;50.774;12.918;2022-12-18T17:38:49;4.90;;;3.10;;
7013;SDS011;3547;50.774;12.918;2022-12-18T17:41:20;5.53;;;2.93;;
7013;SDS011;3547;50.774;12.918;2022-12-18T17:43:54;4.43;;;2.87;;
7013;SDS011;3547;50.774;12.918;2022-12-18T17:46:25;5.23;;;2.57;;
7013;SDS011;3547;50.774;12.918;2022-12-18T17:48:56;3.83;;;2.83;;
7013;SDS011;3547;50.774;12.918;2022-12-18T17:51:24;3.07;;;2.33;;
7013;SDS011;3547;50.774;12.918;2022-12-18T17:53:50;4.37;;;2.87;;
7013;SDS011;3547;50.774;12.918;2022-12-18T17:56:18;3.80;;;2.33;;
7013;SDS011;3547;50.774;12.918;2022-12-18T17:58:46;4.10;;;2.20;;
7013;SDS011;3547;50.774;12.918;2022-12-18T18:01:16;2.73;;;2.10;;
7013;SDS011;3547;50.774;12.918;2022-12-18T18:03:45;4.40;;;2.50;;
7013;SDS011;3547;50.774;12.918;2022-12-18T18:06:11;5.23;;;2.47;;
7013;SDS011;3547;50.774;12.918;2022-12-18T18:08:38;6.67;;;3.13;;